sensor_id;sensor_type;location;lat;lon;timestamp;pressure;altitude;pressure_sealevel;temperature;humidity
23318;BME280;11831;55.918;37.746;2022-10-04T00:03:04;98081.81;;;13.56;0.00
23318;BME280;11831;55.918;37.746;2022-10-04T00:05:32;98078.09;;;13.52;0.00
23318;BME280;11831;55.918;37.746;2022-10-04T00:08:01;98100.16;;;13.44;0.00
23318;BME280;11831;55.918;37.746;2022-10-04T00:10:30;98088.91;;;13.36;0.00
23318;BME280;11831;55.918;37.746;2022-10-04T00:12:58;98092.66;;;13.41;0.00
23318;BME280;11831;55.918;37.746;2022-10-04T00:15:25;98091.53;;;13.47;0.00
23318;BME280;11831;55.918;37.746;2022-10-04T00:25:50;98101.03;;;13.34;0.00
23318;BME280;11831;55.918;37.746;2022-10-04T00:31:08;98103.56;;;13.05;0.00
23318;BME280;11831;55.918;37.746;2022-10-04T00:33:42;98106.69;;;13.27;0.00
23318;BME280;11831;55.918;37.746;2022-10-04T00:46:48;98125.56;;;13.07;0.00
23318;BME280;11831;55.918;37.746;2022-10-04T00:49:15;98117.94;;;13.34;0.00
23318;BME280;11831;55.918;37.746;2022-10-04T00:51:46;98127.69;;;13.10;0.00
23318;BME280;11831;55.918;37.746;2022-10-04T00:54:19;98101.91;;;13.14;0.00
23318;BME280;11831;55.918;37.746;2022-10-04T00:56:48;98123.16;;;13.00;0.00
23318;BME280;11831;55.918;37.746;2022-10-04T00:59:28;98139.97;;;13.31;0.00
23318;BME280;11831;55.918;37.746;2022-10-04T01:02:04;98137.16;;;13.47;0.00
23318;BME280;11831;55.918;37.746;2022-10-04T01:04:36;98122.81;;;13.27;0.00
23318;BME280;11831;55.918;37.746;2022-10-04T01:07:04;98116.19;;;13.04;0.00
23318;BME280;11831;55.918;37.746;2022-10-04T01:09:31;98106.06;;;12.91;0.00
23318;BME280;11831;55.918;37.746;2022-10-04T01:12:02;98125.28;;;13.09;0.00
23318;BME280;11831;55.918;37.746;2022-10-04T01:15:06;98126.56;;;13.16;0.00
23318;BME280;11831;55.918;37.746;2022-10-04T01:17:24;98137.88;;;13.23;0.00
23318;BME280;11831;55.918;37.746;2022-10-04T01:19:52;98146.47;;;13.10;0.00
23318;BME280;11831;55.918;37.746;2022-10-04T01:22:32;98113.63;;;13.33;0.00
23318;BME280;11831;55.918;37.746;2022-10-04T01:24:59;98145.50;;;12.91;0.00
23318;BME280;11831;55.918;37.746;2022-10-04T01:30:01;98139.50;;;13.19;0.00
23318;BME280;11831;55.918;37.746;2022-10-04T01:32:29;98131.47;;;13.58;0.00
23318;BME280;11831;55.918;37.746;2022-10-04T01:34:56;98132.53;;;13.18;0.00
23318;BME280;11831;55.918;37.746;2022-10-04T01:37:23;98137.28;;;13.31;0.00
23318;BME280;11831;55.918;37.746;2022-10-04T01:39:49;98142.78;;;13.55;0.00
23318;BME280;11831;55.918;37.746;2022-10-04T01:45:01;98131.50;;;13.53;0.00
23318;BME280;11831;55.918;37.746;2022-10-04T01:50:19;98141.87;;;13.16;0.00
23318;BME280;11831;55.918;37.746;2022-10-04T01:52:50;98132.50;;;13.13;0.00
23318;BME280;11831;55.918;37.746;2022-10-04T01:55:19;98139.47;;;13.24;0.00
23318;BME280;11831;55.918;37.746;2022-10-04T01:57:51;98160.94;;;13.24;0.00
23318;BME280;11831;55.918;37.746;2022-10-04T02:00:19;98149.28;;;13.44;0.00
23318;BME280;11831;55.918;37.746;2022-10-04T02:02:57;98137.88;;;13.08;0.00
23318;BME280;11831;55.918;37.746;2022-10-04T02:05:37;98121.84;;;12.98;0.00
23318;BME280;11831;55.918;37.746;2022-10-04T02:08:06;98144.03;;;13.24;0.00
23318;BME280;11831;55.918;37.746;2022-10-04T02:10:33;98164.25;;;12.96;0.00
23318;BME280;11831;55.918;37.746;2022-10-04T02:13:04;98155.47;;;12.70;0.00
23318;BME280;11831;55.918;37.746;2022-10-04T02:15:34;98155.41;;;12.90;0.00
23318;BME280;11831;55.918;37.746;2022-10-04T02:18:02;98162.59;;;13.05;0.00
23318;BME280;11831;55.918;37.746;2022-10-04T02:20:31;98164.78;;;12.93;0.00
23318;BME280;11831;55.918;37.746;2022-10-04T02:22:57;98159.72;;;12.76;0.00
23318;BME280;11831;55.918;37.746;2022-10-04T02:25:28;98163.72;;;12.84;0.00
23318;BME280;11831;55.918;37.746;2022-10-04T02:27:54;98170.44;;;12.86;0.00
23318;BME280;11831;55.918;37.746;2022-10-04T02:30:21;98150.66;;;12.62;0.00
23318;BME280;11831;55.918;37.746;2022-10-04T02:32:47;98170.69;;;12.85;0.00
23318;BME280;11831;55.918;37.746;2022-10-04T02:35:23;98160.09;;;12.34;0.00
23318;BME280;11831;55.918;37.746;2022-10-04T02:37:54;98173.94;;;12.87;0.00
23318;BME280;11831;55.918;37.746;2022-10-04T02:40:25;98181.75;;;12.73;0.00
23318;BME280;11831;55.918;37.746;2022-10-04T02:45:32;98188.75;;;12.49;0.00
23318;BME280;11831;55.918;37.746;2022-10-04T02:48:04;98201.28;;;12.79;0.00
23318;BME280;11831;55.918;37.746;2022-10-04T02:50:33;98186.81;;;12.74;0.00
23318;BME280;11831;55.918;37.746;2022-10-04T02:55:45;98193.56;;;12.47;0.00
23318;BME280;11831;55.918;37.746;2022-10-04T02:58:14;98205.41;;;12.25;0.00
23318;BME280;11831;55.918;37.746;2022-10-04T03:00:46;98201.87;;;12.65;0.00
23318;BME280;11831;55.918;37.746;2022-10-04T03:05:41;98200.00;;;12.66;0.00
23318;BME280;11831;55.918;37.746;2022-10-04T03:08:08;98198.94;;;12.52;0.00
23318;BME280;11831;55.918;37.746;2022-10-04T03:10:35;98195.44;;;12.66;0.00
23318;BME280;11831;55.918;37.746;2022-10-04T03:13:02;98195.97;;;12.48;0.00
23318;BME280;11831;55.918;37.746;2022-10-04T03:15:29;98210.19;;;12.43;0.00
23318;BME280;11831;55.918;37.746;2022-10-04T03:17:56;98202.69;;;12.46;0.00
23318;BME280;11831;55.918;37.746;2022-10-04T03:20:22;98197.03;;;12.52;0.00
23318;BME280;11831;55.918;37.746;2022-10-04T03:22:49;98187.97;;;12.18;0.00
23318;BME280;11831;55.918;37.746;2022-10-04T03:25:19;98214.75;;;12.53;0.00
23318;BME280;11831;55.918;37.746;2022-10-04T03:27:47;98199.19;;;12.50;0.00
23318;BME280;11831;55.918;37.746;2022-10-04T03:30:14;98208.88;;;12.05;0.00
23318;BME280;11831;55.918;37.746;2022-10-04T03:32:41;98203.50;;;12.46;0.00
23318;BME280;11831;55.918;37.746;2022-10-04T03:35:15;98215.84;;;12.06;0.00
23318;BME280;11831;55.918;37.746;2022-10-04T03:37:44;98200.81;;;11.90;0.00
23318;BME280;11831;55.918;37.746;2022-10-04T03:40:11;98206.44;;;12.44;0.00
23318;BME280;11831;55.918;37.746;2022-10-04T03:42:39;98209.69;;;12.36;0.00
23318;BME280;11831;55.918;37.746;2022-10-04T03:45:06;98219.84;;;12.19;0.00
23318;BME280;11831;55.918;37.746;2022-10-04T03:47:34;98218.75;;;12.51;0.00
23318;BME280;11831;55.918;37.746;2022-10-04T03:50:05;98201.09;;;12.44;0.00
23318;BME280;11831;55.918;37.746;2022-10-04T03:52:37;98228.69;;;12.50;0.00
23318;BME280;11831;55.918;37.746;2022-10-04T03:55:09;98242.06;;;12.81;0.00
23318;BME280;11831;55.918;37.746;2022-10-04T03:57:37;98241.25;;;12.80;0.00
23318;BME280;11831;55.918;37.746;2022-10-04T04:00:04;98236.19;;;12.73;0.00
23318;BME280;11831;55.918;37.746;2022-10-04T04:02:42;98225.97;;;12.75;0.00
23318;BME280;11831;55.918;37.746;2022-10-04T04:05:19;98242.06;;;12.75;0.00
23318;BME280;11831;55.918;37.746;2022-10-04T04:10:17;98235.66;;;12.66;0.00
23318;BME280;11831;55.918;37.746;2022-10-04T04:15:14;98238.06;;;12.42;0.00
23318;BME280;11831;55.918;37.746;2022-10-04T04:17:41;98227.81;;;13.00;0.00
23318;BME280;11831;55.918;37.746;2022-10-04T04:20:19;98240.97;;;12.82;0.00
23318;BME280;11831;55.918;37.746;2022-10-04T04:22:51;98231.81;;;13.08;0.00
23318;BME280;11831;55.918;37.746;2022-10-04T04:25:20;98231.31;;;12.91;0.00
23318;BME280;11831;55.918;37.746;2022-10-04T04:27:49;98241.53;;;12.73;0.00
23318;BME280;11831;55.918;37.746;2022-10-04T04:30:17;98245.31;;;12.62;0.00
23318;BME280;11831;55.918;37.746;2022-10-04T04:32:53;98246.59;;;13.00;0.00
23318;BME280;11831;55.918;37.746;2022-10-04T04:35:22;98232.66;;;12.93;0.00
23318;BME280;11831;55.918;37.746;2022-10-04T04:40:51;98248.50;;;12.90;0.00
23318;BME280;11831;55.918;37.746;2022-10-04T04:43:25;98250.66;;;12.88;0.00
23318;BME280;11831;55.918;37.746;2022-10-04T04:45:52;98252.25;;;12.94;0.00
23318;BME280;11831;55.918;37.746;2022-10-04T04:48:19;98251.72;;;12.82;0.00
23318;BME280;11831;55.918;37.746;2022-10-04T04:50:55;98246.28;;;13.27;0.00
23318;BME280;11831;55.918;37.746;2022-10-04T04:53:25;98247.37;;;13.06;0.00
23318;BME280;11831;55.918;37.746;2022-10-04T04:55:55;98251.09;;;13.15;0.00
23318;BME280;11831;55.918;37.746;2022-10-04T04:58:26;98254.31;;;13.12;0.00
23318;BME280;11831;55.918;37.746;2022-10-04T05:01:01;98265.91;;;12.97;0.00
23318;BME280;11831;55.918;37.746;2022-10-04T05:03:28;98240.94;;;13.07;0.00
23318;BME280;11831;55.918;37.746;2022-10-04T05:05:59;98243.91;;;12.95;0.00
23318;BME280;11831;55.918;37.746;2022-10-04T05:08:30;98273.38;;;13.31;0.00
23318;BME280;11831;55.918;37.746;2022-10-04T05:13:30;98249.84;;;12.87;0.00
23318;BME280;11831;55.918;37.746;2022-10-04T05:15:57;98263.19;;;13.13;0.00
23318;BME280;11831;55.918;37.746;2022-10-04T05:18:31;98277.19;;;12.99;0.00
23318;BME280;11831;55.918;37.746;2022-10-04T05:23:42;98269.91;;;13.10;0.00
23318;BME280;11831;55.918;37.746;2022-10-04T05:26:09;98270.37;;;13.43;0.00
23318;BME280;11831;55.918;37.746;2022-10-04T05:28:36;98270.94;;;13.34;0.00
23318;BME280;11831;55.918;37.746;2022-10-04T05:31:05;98266.88;;;13.42;0.00
23318;BME280;11831;55.918;37.746;2022-10-04T05:33:54;98264.44;;;13.46;0.00
23318;BME280;11831;55.918;37.746;2022-10-04T05:38:55;98258.66;;;13.83;0.00
23318;BME280;11831;55.918;37.746;2022-10-04T05:43:57;98304.16;;;13.59;0.00
23318;BME280;11831;55.918;37.746;2022-10-04T05:46:29;98295.75;;;13.71;0.00
23318;BME280;11831;55.918;37.746;2022-10-04T05:51:29;98283.09;;;12.96;0.00
23318;BME280;11831;55.918;37.746;2022-10-04T05:54:01;98257.13;;;13.61;0.00
23318;BME280;11831;55.918;37.746;2022-10-04T06:01:55;98296.31;;;13.67;0.00
23318;BME280;11831;55.918;37.746;2022-10-04T06:12:31;98257.44;;;14.04;0.00
23318;BME280;11831;55.918;37.746;2022-10-04T06:18:10;98281.59;;;14.04;0.00
23318;BME280;11831;55.918;37.746;2022-10-04T06:23:17;98284.31;;;14.48;0.00
23318;BME280;11831;55.918;37.746;2022-10-04T06:25:50;98291.34;;;14.44;0.00
23318;BME280;11831;55.918;37.746;2022-10-04T06:34:08;98301.06;;;13.86;0.00
23318;BME280;11831;55.918;37.746;2022-10-04T06:36:19;98290.19;;;14.11;0.00
23318;BME280;11831;55.918;37.746;2022-10-04T06:46:53;98297.62;;;14.24;0.00
23318;BME280;11831;55.918;37.746;2022-10-04T06:54:32;98311.44;;;14.52;0.00
23318;BME280;11831;55.918;37.746;2022-10-04T07:02:12;98309.03;;;14.84;0.00
23318;BME280;11831;55.918;37.746;2022-10-04T07:09:55;98319.28;;;14.82;0.00
23318;BME280;11831;55.918;37.746;2022-10-04T07:12:25;98330.75;;;14.93;0.00
23318;BME280;11831;55.918;37.746;2022-10-04T07:14:52;98326.69;;;14.96;0.00
23318;BME280;11831;55.918;37.746;2022-10-04T07:17:38;98314.06;;;14.91;0.00
23318;BME280;11831;55.918;37.746;2022-10-04T07:20:06;98303.06;;;15.69;0.00
23318;BME280;11831;55.918;37.746;2022-10-04T07:22:46;98321.19;;;16.95;0.00
23318;BME280;11831;55.918;37.746;2022-10-04T07:25:27;98302.63;;;17.62;0.00
23318;BME280;11831;55.918;37.746;2022-10-04T07:27:57;98323.06;;;17.96;0.00
23318;BME280;11831;55.918;37.746;2022-10-04T07:33:29;98293.50;;;18.36;0.00
23318;BME280;11831;55.918;37.746;2022-10-04T07:38:52;98318.88;;;18.40;0.00
23318;BME280;11831;55.918;37.746;2022-10-04T07:41:42;98312.03;;;18.42;0.00
23318;BME280;11831;55.918;37.746;2022-10-04T07:47:01;98323.13;;;16.76;0.00
23318;BME280;11831;55.918;37.746;2022-10-04T07:49:27;98313.66;;;18.07;0.00
23318;BME280;11831;55.918;37.746;2022-10-04T07:52:04;98326.75;;;18.14;0.00
23318;BME280;11831;55.918;37.746;2022-10-04T07:54:39;98317.97;;;18.30;0.00
23318;BME280;11831;55.918;37.746;2022-10-04T07:59:40;98315.75;;;18.91;0.00
23318;BME280;11831;55.918;37.746;2022-10-04T08:04:40;98340.03;;;18.24;0.00
23318;BME280;11831;55.918;37.746;2022-10-04T08:07:15;98331.81;;;18.29;0.00
23318;BME280;11831;55.918;37.746;2022-10-04T08:09:46;98331.75;;;17.38;0.00
23318;BME280;11831;55.918;37.746;2022-10-04T08:25:16;98326.59;;;18.33;0.00
23318;BME280;11831;55.918;37.746;2022-10-04T08:27:52;98295.28;;;18.99;0.00
23318;BME280;11831;55.918;37.746;2022-10-04T08:33:16;98315.87;;;19.79;0.00
23318;BME280;11831;55.918;37.746;2022-10-04T08:35:52;98311.66;;;18.71;0.00
23318;BME280;11831;55.918;37.746;2022-10-04T08:38:41;98317.34;;;17.97;0.00
23318;BME280;11831;55.918;37.746;2022-10-04T09:03:14;98345.03;;;17.81;0.00
23318;BME280;11831;55.918;37.746;2022-10-04T09:05:30;98323.81;;;19.36;0.00
23318;BME280;11831;55.918;37.746;2022-10-04T09:13:16;98312.69;;;19.46;0.00
23318;BME280;11831;55.918;37.746;2022-10-04T09:21:27;98327.53;;;19.48;0.00
23318;BME280;11831;55.918;37.746;2022-10-04T09:26:50;98302.00;;;19.89;0.00
23318;BME280;11831;55.918;37.746;2022-10-04T09:29:31;98302.34;;;19.96;0.00
23318;BME280;11831;55.918;37.746;2022-10-04T09:32:09;98280.75;;;19.65;0.00
23318;BME280;11831;55.918;37.746;2022-10-04T09:47:33;98274.22;;;22.01;0.00
23318;BME280;11831;55.918;37.746;2022-10-04T09:55:41;98304.25;;;20.99;0.00
23318;BME280;11831;55.918;37.746;2022-10-04T10:00:42;98280.91;;;22.13;0.00
23318;BME280;11831;55.918;37.746;2022-10-04T10:03:29;98279.22;;;20.76;0.00
23318;BME280;11831;55.918;37.746;2022-10-04T10:22:56;98298.84;;;20.13;0.00
23318;BME280;11831;55.918;37.746;2022-10-04T10:51:15;98293.44;;;20.39;0.00
23318;BME280;11831;55.918;37.746;2022-10-04T10:53:50;98269.00;;;20.73;0.00
23318;BME280;11831;55.918;37.746;2022-10-04T11:04:27;98314.00;;;20.14;0.00
23318;BME280;11831;55.918;37.746;2022-10-04T11:25:04;98465.28;;;13.44;0.00
23318;BME280;11831;55.918;37.746;2022-10-04T11:30:24;98496.62;;;12.92;0.00
23318;BME280;11831;55.918;37.746;2022-10-04T11:38:09;98480.28;;;12.94;0.00
23318;BME280;11831;55.918;37.746;2022-10-04T11:53:35;98509.19;;;12.71;0.00
23318;BME280;11831;55.918;37.746;2022-10-04T11:56:20;98503.84;;;12.77;0.00
23318;BME280;11831;55.918;37.746;2022-10-04T11:58:56;98508.34;;;12.56;0.00
23318;BME280;11831;55.918;37.746;2022-10-04T12:15:02;98507.56;;;12.60;0.00
23318;BME280;11831;55.918;37.746;2022-10-04T12:22:50;98514.78;;;12.60;0.00
23318;BME280;11831;55.918;37.746;2022-10-04T12:30:27;98526.19;;;14.84;0.00
23318;BME280;11831;55.918;37.746;2022-10-04T12:43:14;98542.22;;;14.40;0.00
23318;BME280;11831;55.918;37.746;2022-10-04T12:46:27;98539.13;;;13.87;0.00
23318;BME280;11831;55.918;37.746;2022-10-04T12:56:33;98542.97;;;14.60;0.00
23318;BME280;11831;55.918;37.746;2022-10-04T13:04:15;98544.72;;;14.16;0.00
23318;BME280;11831;55.918;37.746;2022-10-04T13:07:05;98552.81;;;13.95;0.00
23318;BME280;11831;55.918;37.746;2022-10-04T13:12:09;98567.28;;;14.05;0.00
23318;BME280;11831;55.918;37.746;2022-10-04T13:17:16;98573.19;;;14.07;0.00
23318;BME280;11831;55.918;37.746;2022-10-04T13:27:35;98589.53;;;14.51;0.00
23318;BME280;11831;55.918;37.746;2022-10-04T13:30:05;98584.75;;;14.17;0.00
23318;BME280;11831;55.918;37.746;2022-10-04T13:32:34;98583.63;;;14.39;0.00
23318;BME280;11831;55.918;37.746;2022-10-04T13:35:23;98588.28;;;13.87;0.00
23318;BME280;11831;55.918;37.746;2022-10-04T13:53:23;98588.00;;;13.58;0.00
23318;BME280;11831;55.918;37.746;2022-10-04T14:27:47;98591.50;;;13.59;0.00
23318;BME280;11831;55.918;37.746;2022-10-04T14:35:48;98589.06;;;13.73;0.00
23318;BME280;11831;55.918;37.746;2022-10-04T14:38:25;98589.84;;;13.38;0.00
23318;BME280;11831;55.918;37.746;2022-10-04T14:57:03;98604.41;;;13.67;0.00
23318;BME280;11831;55.918;37.746;2022-10-04T15:12:57;98615.09;;;13.26;0.00
23318;BME280;11831;55.918;37.746;2022-10-04T15:15:32;98612.13;;;13.28;0.00
23318;BME280;11831;55.918;37.746;2022-10-04T15:18:03;98622.06;;;13.22;0.00
23318;BME280;11831;55.918;37.746;2022-10-04T15:25:46;98620.19;;;13.33;0.00
23318;BME280;11831;55.918;37.746;2022-10-04T15:28:26;98640.22;;;13.15;0.00
23318;BME280;11831;55.918;37.746;2022-10-04T15:31:07;98626.69;;;13.67;0.00
23318;BME280;11831;55.918;37.746;2022-10-04T15:49:56;98641.72;;;13.63;0.00
23318;BME280;11831;55.918;37.746;2022-10-04T15:52:43;98648.97;;;13.58;0.00
23318;BME280;11831;55.918;37.746;2022-10-04T16:00:25;98650.63;;;14.15;0.00
23318;BME280;11831;55.918;37.746;2022-10-04T16:03:04;98649.78;;;14.35;0.00
23318;BME280;11831;55.918;37.746;2022-10-04T16:13:31;98651.13;;;14.32;0.00
23318;BME280;11831;55.918;37.746;2022-10-04T16:29:25;98641.19;;;14.48;0.00
23318;BME280;11831;55.918;37.746;2022-10-04T16:31:57;98633.34;;;14.72;0.00
23318;BME280;11831;55.918;37.746;2022-10-04T16:43:11;98646.03;;;14.00;0.00
23318;BME280;11831;55.918;37.746;2022-10-04T16:47:59;98649.22;;;14.63;0.00
23318;BME280;11831;55.918;37.746;2022-10-04T16:55:53;98645.50;;;13.98;0.00
23318;BME280;11831;55.918;37.746;2022-10-04T17:03:35;98634.44;;;14.35;0.00
23318;BME280;11831;55.918;37.746;2022-10-04T17:16:37;98639.34;;;13.92;0.00
23318;BME280;11831;55.918;37.746;2022-10-04T17:19:16;98627.50;;;13.98;0.00
23318;BME280;11831;55.918;37.746;2022-10-04T17:31:48;98644.69;;;14.08;0.00
23318;BME280;11831;55.918;37.746;2022-10-04T17:36:49;98637.41;;;14.39;0.00
23318;BME280;11831;55.918;37.746;2022-10-04T17:49:51;98633.94;;;14.23;0.00
23318;BME280;11831;55.918;37.746;2022-10-04T17:52:40;98637.66;;;14.57;0.00
23318;BME280;11831;55.918;37.746;2022-10-04T17:55:28;98634.94;;;14.68;0.00
23318;BME280;11831;55.918;37.746;2022-10-04T17:58:09;98647.25;;;14.89;0.00
23318;BME280;11831;55.918;37.746;2022-10-04T18:00:59;98635.22;;;14.61;0.00
23318;BME280;11831;55.918;37.746;2022-10-04T18:06:47;98646.84;;;14.41;0.00
23318;BME280;11831;55.918;37.746;2022-10-04T18:09:08;98637.69;;;14.47;0.00
23318;BME280;11831;55.918;37.746;2022-10-04T18:17:02;98640.38;;;14.47;0.00
23318;BME280;11831;55.918;37.746;2022-10-04T18:22:24;98634.13;;;14.67;0.00
23318;BME280;11831;55.918;37.746;2022-10-04T18:25:15;98651.13;;;14.57;0.00
23318;BME280;11831;55.918;37.746;2022-10-04T18:27:47;98646.06;;;14.15;0.00
23318;BME280;11831;55.918;37.746;2022-10-04T18:30:16;98641.75;;;13.79;0.00
23318;BME280;11831;55.918;37.746;2022-10-04T18:32:49;98640.94;;;14.09;0.00
23318;BME280;11831;55.918;37.746;2022-10-04T18:35:20;98646.56;;;14.33;0.00
23318;BME280;11831;55.918;37.746;2022-10-04T18:38:34;98635.78;;;14.38;0.00
23318;BME280;11831;55.918;37.746;2022-10-04T18:40:42;98635.56;;;14.04;0.00
23318;BME280;11831;55.918;37.746;2022-10-04T18:48:37;98639.06;;;13.99;0.00
23318;BME280;11831;55.918;37.746;2022-10-04T18:53:51;98641.75;;;14.19;0.00
23318;BME280;11831;55.918;37.746;2022-10-04T18:56:22;98641.22;;;14.43;0.00
23318;BME280;11831;55.918;37.746;2022-10-04T18:58:53;98647.38;;;14.53;0.00
23318;BME280;11831;55.918;37.746;2022-10-04T19:06:59;98650.63;;;14.15;0.00
23318;BME280;11831;55.918;37.746;2022-10-04T19:12:21;98659.75;;;13.83;0.00
23318;BME280;11831;55.918;37.746;2022-10-04T19:14:51;98651.94;;;13.56;0.00
23318;BME280;11831;55.918;37.746;2022-10-04T19:17:27;98655.38;;;13.42;0.00
23318;BME280;11831;55.918;37.746;2022-10-04T19:27:38;98660.03;;;13.87;0.00
23318;BME280;11831;55.918;37.746;2022-10-04T19:30:18;98662.19;;;14.10;0.00
23318;BME280;11831;55.918;37.746;2022-10-04T19:33:11;98657.84;;;13.58;0.00
23318;BME280;11831;55.918;37.746;2022-10-04T19:40:27;98662.38;;;12.85;0.00
23318;BME280;11831;55.918;37.746;2022-10-04T19:48:21;98656.16;;;12.74;0.00
23318;BME280;11831;55.918;37.746;2022-10-04T19:50:54;98662.13;;;12.39;0.00
23318;BME280;11831;55.918;37.746;2022-10-04T19:53:55;98663.50;;;12.42;0.00
23318;BME280;11831;55.918;37.746;2022-10-04T19:56:18;98667.47;;;12.34;0.00
23318;BME280;11831;55.918;37.746;2022-10-04T19:58:52;98661.22;;;12.24;0.00
23318;BME280;11831;55.918;37.746;2022-10-04T20:01:23;98663.50;;;12.42;0.00
23318;BME280;11831;55.918;37.746;2022-10-04T20:03:51;98660.47;;;12.28;0.00
23318;BME280;11831;55.918;37.746;2022-10-04T20:06:36;98657.69;;;12.18;0.00
23318;BME280;11831;55.918;37.746;2022-10-04T20:11:48;98656.88;;;12.18;0.00
23318;BME280;11831;55.918;37.746;2022-10-04T20:19:17;98658.66;;;12.02;0.00
23318;BME280;11831;55.918;37.746;2022-10-04T20:21:44;98660.63;;;12.17;0.00
23318;BME280;11831;55.918;37.746;2022-10-04T20:24:56;98661.81;;;12.31;0.00
23318;BME280;11831;55.918;37.746;2022-10-04T20:26:56;98662.84;;;12.25;0.00
23318;BME280;11831;55.918;37.746;2022-10-04T20:32:03;98661.22;;;12.66;0.00
23318;BME280;11831;55.918;37.746;2022-10-04T20:37:02;98657.75;;;12.70;0.00
23318;BME280;11831;55.918;37.746;2022-10-04T20:42:09;98656.00;;;12.91;0.00
23318;BME280;11831;55.918;37.746;2022-10-04T20:44:48;98665.22;;;12.58;0.00
23318;BME280;11831;55.918;37.746;2022-10-04T20:50:27;98655.44;;;12.37;0.00
23318;BME280;11831;55.918;37.746;2022-10-04T20:52:51;98661.41;;;13.01;0.00
23318;BME280;11831;55.918;37.746;2022-10-04T20:55:34;98651.91;;;12.79;0.00
23318;BME280;11831;55.918;37.746;2022-10-04T20:58:16;98656.88;;;13.12;0.00
23318;BME280;11831;55.918;37.746;2022-10-04T21:00:50;98657.41;;;13.09;0.00
23318;BME280;11831;55.918;37.746;2022-10-04T21:03:16;98659.66;;;13.27;0.00
23318;BME280;11831;55.918;37.746;2022-10-04T21:05:44;98654.66;;;12.94;0.00
23318;BME280;11831;55.918;37.746;2022-10-04T21:08:11;98651.75;;;12.53;0.00
23318;BME280;11831;55.918;37.746;2022-10-04T21:10:37;98659.81;;;12.16;0.00
23318;BME280;11831;55.918;37.746;2022-10-04T21:13:03;98652.34;;;12.18;0.00
23318;BME280;11831;55.918;37.746;2022-10-04T21:15:29;98656.31;;;12.10;0.00
23318;BME280;11831;55.918;37.746;2022-10-04T21:20:40;98652.34;;;11.59;0.00
23318;BME280;11831;55.918;37.746;2022-10-04T21:23:12;98651.34;;;11.65;0.00
23318;BME280;11831;55.918;37.746;2022-10-04T21:25:41;98654.31;;;11.69;0.00
23318;BME280;11831;55.918;37.746;2022-10-04T21:30:51;98649.72;;;11.37;0.00
23318;BME280;11831;55.918;37.746;2022-10-04T21:33:17;98649.03;;;11.47;0.00
23318;BME280;11831;55.918;37.746;2022-10-04T21:35:43;98649.66;;;11.59;0.00
23318;BME280;11831;55.918;37.746;2022-10-04T21:38:09;98644.81;;;11.56;0.00
23318;BME280;11831;55.918;37.746;2022-10-04T21:40:36;98653.78;;;11.40;0.00
23318;BME280;11831;55.918;37.746;2022-10-04T21:43:02;98638.91;;;12.13;0.00
23318;BME280;11831;55.918;37.746;2022-10-04T21:45:28;98639.66;;;11.76;0.00
23318;BME280;11831;55.918;37.746;2022-10-04T21:47:54;98645.66;;;12.21;0.00
23318;BME280;11831;55.918;37.746;2022-10-04T21:50:20;98643.44;;;12.07;0.00
23318;BME280;11831;55.918;37.746;2022-10-04T21:52:47;98641.75;;;11.96;0.00
23318;BME280;11831;55.918;37.746;2022-10-04T21:55:13;98655.53;;;11.83;0.00
23318;BME280;11831;55.918;37.746;2022-10-04T21:57:39;98633.72;;;11.96;0.00
23318;BME280;11831;55.918;37.746;2022-10-04T22:00:05;98639.09;;;12.38;0.00
23318;BME280;11831;55.918;37.746;2022-10-04T22:02:38;98639.97;;;12.54;0.00
23318;BME280;11831;55.918;37.746;2022-10-04T22:05:04;98640.81;;;12.60;0.00
23318;BME280;11831;55.918;37.746;2022-10-04T22:07:30;98644.06;;;12.67;0.00
23318;BME280;11831;55.918;37.746;2022-10-04T22:09:56;98642.03;;;12.37;0.00
23318;BME280;11831;55.918;37.746;2022-10-04T22:12:22;98639.75;;;12.61;0.00
23318;BME280;11831;55.918;37.746;2022-10-04T22:14:48;98634.47;;;12.76;0.00
23318;BME280;11831;55.918;37.746;2022-10-04T22:17:14;98642.69;;;12.59;0.00
23318;BME280;11831;55.918;37.746;2022-10-04T22:19:40;98643.06;;;12.83;0.00
23318;BME280;11831;55.918;37.746;2022-10-04T22:22:11;98642.53;;;12.81;0.00
23318;BME280;11831;55.918;37.746;2022-10-04T22:24:38;98640.72;;;12.97;0.00
23318;BME280;11831;55.918;37.746;2022-10-04T22:27:09;98644.59;;;13.21;0.00
23318;BME280;11831;55.918;37.746;2022-10-04T22:29:35;98636.31;;;13.43;0.00
23318;BME280;11831;55.918;37.746;2022-10-04T22:32:05;98640.31;;;13.30;0.00
23318;BME280;11831;55.918;37.746;2022-10-04T22:34:35;98645.16;;;13.23;0.00
23318;BME280;11831;55.918;37.746;2022-10-04T22:37:01;98641.41;;;13.45;0.00
23318;BME280;11831;55.918;37.746;2022-10-04T22:39:27;98645.16;;;13.33;0.00
23318;BME280;11831;55.918;37.746;2022-10-04T22:41:57;98641.03;;;13.11;0.00
23318;BME280;11831;55.918;37.746;2022-10-04T22:44:29;98646.41;;;13.16;0.00
23318;BME280;11831;55.918;37.746;2022-10-04T22:46:56;98637.44;;;13.57;0.00
23318;BME280;11831;55.918;37.746;2022-10-04T22:49:24;98637.91;;;13.34;0.00
23318;BME280;11831;55.918;37.746;2022-10-04T22:51:51;98645.44;;;12.74;0.00
23318;BME280;11831;55.918;37.746;2022-10-04T22:54:18;98645.78;;;12.88;0.00
23318;BME280;11831;55.918;37.746;2022-10-04T22:56:45;98641.44;;;12.77;0.00
23318;BME280;11831;55.918;37.746;2022-10-04T22:59:15;98638.63;;;12.52;0.00
23318;BME280;11831;55.918;37.746;2022-10-04T23:01:44;98639.13;;;13.01;0.00
23318;BME280;11831;55.918;37.746;2022-10-04T23:04:21;98637.44;;;12.85;0.00
23318;BME280;11831;55.918;37.746;2022-10-04T23:06:48;98636.09;;;12.82;0.00
23318;BME280;11831;55.918;37.746;2022-10-04T23:09:14;98637.31;;;13.17;0.00
23318;BME280;11831;55.918;37.746;2022-10-04T23:11:41;98634.16;;;13.30;0.00
23318;BME280;11831;55.918;37.746;2022-10-04T23:17:23;98638.97;;;13.18;0.00
23318;BME280;11831;55.918;37.746;2022-10-04T23:22:34;98635.66;;;13.11;0.00
23318;BME280;11831;55.918;37.746;2022-10-04T23:25:00;98626.69;;;12.85;0.00
23318;BME280;11831;55.918;37.746;2022-10-04T23:27:27;98625.03;;;13.26;0.00